Time;durP1;ratioP1;P1;durP2;ratioP2;P2;SDS_P1;SDS_P2;PMS_P1;PMS_P2;Temp;Humidity;BMP_temperature;BMP_pressure;BME280_temperature;BME280_humidity;BME280_pressure;Samples;Min_cycle;Max_cycle;Signal;HPM_P1;HPM_P2
2022/12/06 00:01:08;;;;;;;6.30;3.23;;;6.50;99.90;;;;;;5095626;28;20028;-81
2022/12/06 00:03:35;;;;;;;7.80;3.37;;;6.50;99.90;;;;;;5095738;28;20016;-81
2022/12/06 00:06:09;;;;;;;5.03;2.60;;;6.50;99.90;;;;;;5078765;28;20096;-81
2022/12/06 00:08:35;;;;;;;7.03;3.40;;;6.50;99.90;;;;;;5096913;28;20024;-81
2022/12/06 00:11:22;;;;;;;6.67;3.00;;;6.50;99.90;;;;;;5095568;28;20036;-81
2022/12/06 00:13:52;;;;;;;6.83;3.10;;;6.50;99.90;;;;;;5096812;28;20025;-81
2022/12/06 00:16:18;;;;;;;6.40;3.23;;;6.50;99.90;;;;;;5096860;28;20020;-81
2022/12/06 00:18:45;;;;;;;5.90;3.03;;;6.50;99.90;;;;;;5078433;28;20036;-81
2022/12/06 00:21:17;;;;;;;6.03;2.57;;;6.50;99.90;;;;;;5097036;28;20376;-81
2022/12/06 00:23:48;;;;;;;5.33;2.57;;;6.50;99.90;;;;;;5095288;28;20016;-81
2022/12/06 00:26:15;;;;;;;5.10;2.47;;;6.50;99.90;;;;;;5096556;28;20426;-82
2022/12/06 00:28:41;;;;;;;5.83;3.00;;;6.60;99.90;;;;;;5078267;28;20028;-82
2022/12/06 00:31:10;;;;;;;7.53;3.03;;;6.50;99.90;;;;;;5078224;28;20024;-82
2022/12/06 00:33:36;;;;;;;5.20;2.40;;;6.50;99.90;;;;;;5095306;28;20032;-81
2022/12/06 00:36:14;;;;;;;8.50;3.00;;;6.50;99.90;;;;;;5096409;28;20036;-81
2022/12/06 00:38:40;;;;;;;6.60;3.07;;;6.50;99.90;;;;;;5094873;28;20039;-81
2022/12/06 00:41:09;;;;;;;7.57;3.10;;;6.50;99.90;;;;;;5095109;28;20024;-81
2022/12/06 00:43:36;;;;;;;6.07;3.17;;;6.50;99.90;;;;;;5096217;28;20028;-81
2022/12/06 00:46:03;;;;;;;6.10;3.00;;;6.50;99.90;;;;;;5078001;28;20048;-81
2022/12/06 00:48:29;;;;;;;7.90;3.57;;;6.50;99.90;;;;;;5094924;28;20058;-81
2022/12/06 00:50:54;;;;;;;5.73;3.40;;;6.50;99.90;;;;;;5077880;28;20066;-81
2022/12/06 00:53:20;;;;;;;6.53;3.43;;;6.50;99.90;;;;;;5094676;28;20043;-81
2022/12/06 00:55:46;;;;;;;6.23;3.30;;;6.50;99.90;;;;;;5094734;28;20028;-81
2022/12/06 00:58:12;;;;;;;6.37;3.10;;;6.50;99.90;;;;;;5094462;28;20472;-81
2022/12/06 01:00:39;;;;;;;6.43;3.67;;;6.50;99.90;;;;;;5094300;28;20113;-81
2022/12/06 01:03:05;;;;;;;6.63;3.80;;;6.50;99.90;;;;;;5094633;28;20029;-81
2022/12/06 01:05:31;;;;;;;7.20;3.17;;;6.50;99.90;;;;;;5094614;28;20028;-81
2022/12/06 01:07:57;;;;;;;7.00;3.60;;;6.50;99.90;;;;;;5094467;28;20480;-81
2022/12/06 01:10:23;;;;;;;6.57;3.60;;;6.50;99.90;;;;;;5095648;28;20028;-81
2022/12/06 01:12:49;;;;;;;8.43;4.30;;;6.50;99.90;;;;;;5094343;28;20024;-81
2022/12/06 01:15:14;;;;;;;6.97;3.77;;;6.60;99.90;;;;;;5077504;28;20042;-81
2022/12/06 01:17:40;;;;;;;7.13;3.83;;;6.60;99.90;;;;;;5094270;28;20039;-82
2022/12/06 01:20:06;;;;;;;7.50;3.80;;;6.50;99.90;;;;;;5094284;28;20036;-81
2022/12/06 01:22:32;;;;;;;5.50;3.13;;;6.50;99.90;;;;;;5077300;28;20123;-81
2022/12/06 01:24:58;;;;;;;6.13;3.90;;;6.60;99.90;;;;;;5095322;28;20438;-81
2022/12/06 01:27:24;;;;;;;8.83;3.70;;;6.50;99.90;;;;;;5077090;28;20040;-80
2022/12/06 01:29:49;;;;;;;5.77;3.57;;;6.50;99.90;;;;;;5094094;28;20445;-79
2022/12/06 01:32:15;;;;;;;7.83;3.83;;;6.50;99.90;;;;;;5077193;28;20071;-79
2022/12/06 01:34:40;;;;;;;8.03;3.90;;;6.40;99.90;;;;;;5076923;28;20165;-80
2022/12/06 01:37:06;;;;;;;8.17;3.50;;;6.50;99.90;;;;;;5093825;28;20028;-81
2022/12/06 01:39:31;;;;;;;7.60;3.30;;;6.40;99.90;;;;;;5077243;28;20039;-80
2022/12/06 01:41:57;;;;;;;6.10;3.37;;;6.50;99.90;;;;;;5095146;28;20051;-81
2022/12/06 01:44:57;;;;;;;6.80;3.50;;;6.50;99.90;;;;;;5093608;28;20046;-81
2022/12/06 01:47:27;;;;;;;8.17;3.40;;;6.50;99.90;;;;;;5040101;28;20036;-82
2022/12/06 01:50:03;;;;;;;8.57;3.50;;;6.60;99.90;;;;;;5093586;28;20065;-79
2022/12/06 01:52:47;;;;;;;5.70;3.10;;;6.60;99.90;;;;;;5093577;28;20028;-79
2022/12/06 01:55:14;;;;;;;7.63;3.60;;;6.60;99.90;;;;;;5093572;28;20020;-79
2022/12/06 01:57:40;;;;;;;6.20;3.37;;;6.60;99.90;;;;;;5094613;28;20107;-80
2022/12/06 02:00:06;;;;;;;10.50;3.77;;;6.60;99.90;;;;;;5093449;28;20540;-80
2022/12/06 02:02:32;;;;;;;11.30;4.13;;;6.60;99.90;;;;;;5093475;28;20094;-80
2022/12/06 02:04:59;;;;;;;7.00;3.83;;;6.60;99.90;;;;;;5076669;28;20051;-81
2022/12/06 02:07:26;;;;;;;9.73;3.77;;;6.50;99.90;;;;;;5093468;28;20031;-81
2022/12/06 02:09:53;;;;;;;8.23;3.47;;;6.60;99.90;;;;;;5076624;28;20113;-80
2022/12/06 02:12:19;;;;;;;7.13;3.47;;;6.60;99.90;;;;;;5092542;28;20047;-80
2022/12/06 02:14:48;;;;;;;8.17;3.77;;;6.60;99.90;;;;;;5076330;28;20032;-80
2022/12/06 02:17:42;;;;;;;7.03;3.53;;;6.60;99.90;;;;;;5094286;28;20464;-80
2022/12/06 02:20:10;;;;;;;11.10;3.33;;;6.60;99.90;;;;;;5093150;28;20013;-80
2022/12/06 02:22:59;;;;;;;19.03;5.07;;;6.60;99.90;;;;;;5094252;28;20020;-81
2022/12/06 02:25:46;;;;;;;7.23;3.97;;;6.60;99.90;;;;;;5052803;28;20063;-80
2022/12/06 02:28:18;;;;;;;8.13;3.67;;;6.60;99.90;;;;;;5092914;28;20027;-81
2022/12/06 02:31:19;;;;;;;10.17;3.90;;;6.60;99.90;;;;;;5094172;28;20031;-81
2022/12/06 02:33:59;;;;;;;11.80;4.13;;;6.60;99.90;;;;;;5093825;28;20542;-81
2022/12/06 02:36:54;;;;;;;9.10;4.43;;;6.60;99.90;;;;;;5092771;28;20028;-80
2022/12/06 02:39:44;;;;;;;10.13;4.80;;;6.70;99.90;;;;;;5092550;28;20028;-80
2022/12/06 02:42:14;;;;;;;10.73;4.70;;;6.60;99.90;;;;;;5092585;28;20122;-80
2022/12/06 02:44:44;;;;;;;11.73;4.73;;;6.70;99.90;;;;;;5092505;28;20044;-80
2022/12/06 02:47:12;;;;;;;11.27;4.90;;;6.70;99.90;;;;;;5092658;28;20043;-80
2022/12/06 02:49:43;;;;;;;11.67;4.80;;;6.60;99.90;;;;;;5092675;28;20101;-80
2022/12/06 02:52:10;;;;;;;9.50;4.43;;;6.80;99.90;;;;;;5093750;28;20059;-80
2022/12/06 02:54:37;;;;;;;12.90;4.57;;;6.70;99.90;;;;;;5092528;28;20028;-80
2022/12/06 02:57:02;;;;;;;9.70;4.20;;;6.60;99.90;;;;;;5075745;28;20024;-80
2022/12/06 02:59:28;;;;;;;18.03;6.13;;;6.70;99.90;;;;;;5092588;28;20480;-81
2022/12/06 03:02:00;;;;;;;9.50;4.53;;;6.70;99.90;;;;;;5075597;28;20503;-81
2022/12/06 03:04:45;;;;;;;9.07;3.93;;;6.60;99.90;;;;;;5092288;28;20472;-80
2022/12/06 03:07:29;;;;;;;14.20;4.80;;;6.60;99.90;;;;;;5093562;28;20058;-81
2022/12/06 03:10:04;;;;;;;;;;;6.60;99.90;;;;;;5092562;28;20032;-82
2022/12/06 03:12:34;;;;;;;10.65;4.05;;;6.60;99.90;;;;;;5093441;28;19904;-82
2022/12/06 03:15:05;;;;;;;12.43;4.73;;;6.60;99.90;;;;;;5092152;28;20372;-80
2022/12/06 03:17:46;;;;;;;9.77;4.13;;;6.60;99.90;;;;;;5092106;28;20427;-80
2022/12/06 03:20:46;;;;;;;11.93;5.33;;;6.60;99.90;;;;;;5091920;28;20115;-80
2022/12/06 03:23:20;;;;;;;10.50;4.60;;;6.50;99.90;;;;;;5078559;28;20032;-80
2022/12/06 03:25:47;;;;;;;10.57;4.63;;;6.50;99.90;;;;;;5092116;28;20074;-80
2022/12/06 03:28:16;;;;;;;11.27;4.80;;;6.50;99.90;;;;;;5093241;28;20028;-80
2022/12/06 03:30:46;;;;;;;9.87;4.53;;;6.50;99.90;;;;;;5091981;28;20075;-80
2022/12/06 03:33:14;;;;;;;13.23;4.97;;;6.50;99.90;;;;;;5092186;28;20503;-80
2022/12/06 03:35:41;;;;;;;10.30;4.93;;;6.50;99.90;;;;;;5091995;28;20020;-80
2022/12/06 03:38:11;;;;;;;12.00;5.30;;;6.50;99.90;;;;;;5075208;28;20024;-80
2022/12/06 03:40:41;;;;;;;13.00;4.83;;;6.50;99.90;;;;;;5093121;28;20020;-81
2022/12/06 03:43:07;;;;;;;12.00;4.90;;;6.50;99.90;;;;;;5091916;28;20048;-80
2022/12/06 03:45:41;;;;;;;14.03;5.60;;;6.50;99.90;;;;;;5091622;28;20123;-80
2022/12/06 03:48:15;;;;;;;12.90;5.53;;;6.40;99.90;;;;;;5093337;28;20024;-80
2022/12/06 03:50:49;;;;;;;12.10;6.03;;;6.40;99.90;;;;;;5092031;28;20027;-80
2022/12/06 03:53:16;;;;;;;12.80;5.05;;;6.40;99.90;;;;;;5093097;28;20020;-81
2022/12/06 03:55:43;;;;;;;10.00;4.60;;;6.40;99.90;;;;;;5093147;28;20024;-80
2022/12/06 03:58:09;;;;;;;11.30;5.13;;;6.30;99.90;;;;;;5092834;28;20131;-80
2022/12/06 04:00:34;;;;;;;12.43;5.60;;;6.40;99.90;;;;;;5091958;28;20052;-81
2022/12/06 04:03:00;;;;;;;11.33;5.20;;;6.30;99.90;;;;;;5091860;28;20188;-80
2022/12/06 04:05:26;;;;;;;12.77;5.33;;;6.30;99.90;;;;;;5091934;28;20024;-80
2022/12/06 04:07:51;;;;;;;12.80;4.27;;;6.30;99.90;;;;;;5091730;28;20059;-81
2022/12/06 04:10:17;;;;;;;13.63;5.10;;;6.40;99.90;;;;;;5075068;28;20086;-81
2022/12/06 04:13:00;;;;;;;7.90;4.17;;;6.30;99.90;;;;;;5091935;28;20387;-81
2022/12/06 04:15:29;;;;;;;10.77;5.37;;;6.30;99.90;;;;;;5091956;28;20073;-80
2022/12/06 04:18:14;;;;;;;14.20;5.47;;;6.20;99.90;;;;;;5092903;28;20099;-81
2022/12/06 04:23:34;;;;;;;13.57;5.53;;;6.30;99.90;;;;;;5093234;28;20089;-81
2022/12/06 04:26:00;;;;;;;14.60;5.33;;;6.30;99.90;;;;;;5091540;28;20045;-81
2022/12/06 04:39:24;;;;;;;11.63;4.53;;;6.20;99.90;;;;;;5096641;28;20123;-81
2022/12/06 04:44:34;;;;;;;11.07;4.70;;;6.10;99.90;;;;;;5095301;28;20105;-81
2022/12/06 04:47:00;;;;;;;12.63;4.23;;;6.10;99.90;;;;;;5096311;28;20024;-81
2022/12/06 04:49:26;;;;;;;14.47;5.37;;;6.10;99.90;;;;;;5078288;28;20490;-81
2022/12/06 04:51:53;;;;;;;12.30;5.00;;;6.10;99.90;;;;;;5102684;28;20024;-81
2022/12/06 04:54:20;;;;;;;10.33;4.20;;;6.10;99.90;;;;;;5094803;28;20384;-81
2022/12/06 04:56:46;;;;;;;11.50;4.70;;;6.00;99.90;;;;;;5108429;28;20088;-81
2022/12/06 04:59:11;;;;;;;9.27;3.80;;;6.10;99.90;;;;;;5106853;28;20040;-81
2022/12/06 05:01:37;;;;;;;9.27;3.70;;;6.00;99.90;;;;;;5099904;28;20112;-81
2022/12/06 05:04:02;;;;;;;13.17;4.10;;;6.10;99.90;;;;;;5105080;28;20473;-81
2022/12/06 05:06:28;;;;;;;9.70;4.60;;;6.10;99.90;;;;;;5100267;28;20032;-81
2022/12/06 05:08:54;;;;;;;7.60;4.03;;;6.10;99.90;;;;;;5079159;28;20024;-78
2022/12/06 05:11:19;;;;;;;10.23;4.33;;;6.10;99.90;;;;;;5094577;28;20062;-78
2022/12/06 05:13:45;;;;;;;8.60;3.80;;;6.10;99.90;;;;;;5094375;28;20024;-78
2022/12/06 05:16:12;;;;;;;9.33;4.20;;;6.10;99.90;;;;;;5094359;28;20480;-78
2022/12/06 05:18:38;;;;;;;12.13;5.13;;;6.10;99.90;;;;;;5095415;28;20064;-77
2022/12/06 05:21:07;;;;;;;8.57;3.73;;;6.10;99.90;;;;;;5095368;28;20047;-78
2022/12/06 05:23:34;;;;;;;9.13;3.97;;;6.10;99.90;;;;;;5093989;28;20017;-77
2022/12/06 05:26:04;;;;;;;10.00;3.93;;;6.10;99.90;;;;;;5077347;28;20020;-77
2022/12/06 05:28:30;;;;;;;10.13;3.67;;;6.10;99.90;;;;;;5094083;28;20020;-78
2022/12/06 05:30:56;;;;;;;10.47;3.40;;;6.10;99.90;;;;;;5094054;28;20028;-78
2022/12/06 05:33:23;;;;;;;8.47;3.27;;;6.20;99.90;;;;;;5085082;28;20028;-79
2022/12/06 05:35:49;;;;;;;10.40;3.77;;;6.20;99.90;;;;;;5100822;28;20123;-79
2022/12/06 05:38:15;;;;;;;8.20;3.77;;;6.00;99.90;;;;;;5090893;28;20107;-79
2022/12/06 05:40:42;;;;;;;8.80;3.90;;;6.10;99.90;;;;;;5093651;28;20020;-79
2022/12/06 05:43:07;;;;;;;9.00;3.47;;;6.10;99.90;;;;;;5075706;28;20078;-79
2022/12/06 05:45:33;;;;;;;9.27;3.73;;;6.10;99.90;;;;;;5073404;28;20044;-77
2022/12/06 05:47:59;;;;;;;9.67;3.73;;;6.00;99.90;;;;;;5071409;28;20048;-77
2022/12/06 05:50:24;;;;;;;10.40;4.03;;;6.10;99.90;;;;;;5089229;28;20031;-77
2022/12/06 05:52:58;;;;;;;8.30;3.27;;;6.00;99.90;;;;;;5074759;28;20025;-77
2022/12/06 05:55:24;;;;;;;11.27;3.65;;;6.00;99.90;;;;;;5074684;28;20021;-78
2022/12/06 05:57:50;;;;;;;12.33;3.87;;;6.10;99.90;;;;;;5073116;28;20438;-78
2022/12/06 06:00:17;;;;;;;9.50;3.87;;;6.00;99.90;;;;;;5074561;28;20025;-77
2022/12/06 06:02:43;;;;;;;12.70;4.23;;;6.00;99.90;;;;;;5074273;28;20056;-77
2022/12/06 06:05:09;;;;;;;11.17;3.50;;;5.90;99.90;;;;;;5074354;28;20052;-78
2022/12/06 06:07:34;;;;;;;8.50;3.83;;;5.90;99.90;;;;;;5073079;28;20123;-78
2022/12/06 06:10:00;;;;;;;8.57;3.90;;;5.90;99.90;;;;;;5090457;28;20036;-78
2022/12/06 06:12:26;;;;;;;10.03;4.33;;;5.90;99.90;;;;;;5091948;28;20107;-77
2022/12/06 06:14:52;;;;;;;11.73;4.37;;;5.90;99.90;;;;;;5092596;28;20472;-78
2022/12/06 06:17:17;;;;;;;10.77;4.63;;;5.90;99.90;;;;;;5091347;28;20036;-78
2022/12/06 06:19:43;;;;;;;12.50;4.70;;;5.90;99.90;;;;;;5092372;28;20111;-78
2022/12/06 06:22:09;;;;;;;13.17;4.30;;;5.90;99.90;;;;;;5109897;28;20025;-78
2022/12/06 06:24:40;;;;;;;11.07;3.83;;;5.90;99.90;;;;;;5092052;28;20020;-78
2022/12/06 06:27:06;;;;;;;10.93;3.97;;;5.90;99.90;;;;;;5093560;28;20073;-78
2022/12/06 06:29:32;;;;;;;9.70;3.87;;;5.80;99.90;;;;;;5108964;28;20023;-78
2022/12/06 06:31:57;;;;;;;11.07;4.30;;;5.90;99.90;;;;;;5091841;28;20024;-78
2022/12/06 06:34:24;;;;;;;11.70;4.20;;;5.90;99.90;;;;;;5092865;28;20016;-78
2022/12/06 06:36:51;;;;;;;9.07;4.03;;;5.80;99.90;;;;;;5109360;28;20016;-78
2022/12/06 06:39:17;;;;;;;8.50;3.27;;;5.90;99.90;;;;;;5093556;28;20465;-78
2022/12/06 06:41:46;;;;;;;12.93;4.40;;;5.80;99.90;;;;;;5109248;28;20019;-78
2022/12/06 06:44:12;;;;;;;9.17;4.00;;;5.80;99.90;;;;;;5093287;28;20016;-78
2022/12/06 06:46:38;;;;;;;8.90;3.83;;;5.80;99.90;;;;;;5109182;28;20047;-78
2022/12/06 06:49:04;;;;;;;10.27;4.03;;;5.80;99.90;;;;;;5093379;28;20550;-79
2022/12/06 06:51:31;;;;;;;10.20;4.13;;;5.80;99.90;;;;;;5092391;28;20092;-78
2022/12/06 06:53:58;;;;;;;11.33;4.10;;;5.80;99.90;;;;;;5109483;28;20020;-78
2022/12/06 06:56:23;;;;;;;14.87;4.43;;;5.80;99.90;;;;;;5093317;28;20050;-78
2022/12/06 06:58:50;;;;;;;10.50;4.43;;;5.90;99.90;;;;;;5075244;28;20036;-78
2022/12/06 07:01:18;;;;;;;9.83;4.03;;;5.80;99.90;;;;;;5109239;28;20020;-78
2022/12/06 07:03:44;;;;;;;10.30;3.60;;;5.80;99.90;;;;;;5109491;28;20495;-79
2022/12/06 07:06:10;;;;;;;9.90;3.63;;;5.80;99.90;;;;;;5109141;28;20040;-79
2022/12/06 07:08:37;;;;;;;8.97;3.30;;;5.80;99.90;;;;;;5109351;28;20055;-79
2022/12/06 07:11:03;;;;;;;8.67;3.73;;;5.90;99.90;;;;;;5092080;28;20039;-78
2022/12/06 07:13:30;;;;;;;8.37;3.03;;;5.80;99.90;;;;;;5091735;28;20050;-78
2022/12/06 07:15:57;;;;;;;6.73;3.20;;;5.80;99.90;;;;;;5092303;28;20043;-78
2022/12/06 07:18:24;;;;;;;10.73;4.10;;;5.70;99.90;;;;;;5108919;28;20039;-79
2022/12/06 07:21:03;;;;;;;8.67;3.27;;;5.80;99.90;;;;;;5092006;28;20103;-79
2022/12/06 07:23:30;;;;;;;7.73;3.17;;;5.70;99.90;;;;;;5107506;28;20070;-79
2022/12/06 07:26:05;;;;;;;7.90;3.30;;;5.80;99.90;;;;;;5108705;28;20026;-79
2022/12/06 07:28:32;;;;;;;7.70;3.07;;;5.70;99.90;;;;;;5093144;28;20027;-79
2022/12/06 07:31:05;;;;;;;8.70;3.27;;;5.80;99.90;;;;;;5107957;28;20487;-79
2022/12/06 07:33:31;;;;;;;8.68;3.05;;;5.70;99.90;;;;;;5092898;28;20074;-79
2022/12/06 07:35:56;;;;;;;9.30;2.80;;;5.70;99.90;;;;;;5091845;28;20430;-79
2022/12/06 07:38:22;;;;;;;8.97;2.90;;;5.70;99.90;;;;;;5108593;28;20028;-79
2022/12/06 07:40:48;;;;;;;6.70;3.00;;;5.70;99.90;;;;;;5092015;28;20024;-79
2022/12/06 07:45:57;;;;;;;3.50;1.98;;;5.70;99.90;;;;;;5091989;28;20412;-79
2022/12/06 07:48:23;;;;;;;9.70;3.00;;;5.70;99.90;;;;;;5091903;28;20032;-79
2022/12/06 07:50:51;;;;;;;10.50;2.57;;;5.70;99.90;;;;;;5091805;28;20035;-79
2022/12/06 07:53:17;;;;;;;5.83;2.57;;;5.70;99.90;;;;;;5091819;28;20050;-79
2022/12/06 07:55:42;;;;;;;8.83;2.70;;;5.80;99.90;;;;;;5092038;28;20535;-79
2022/12/06 07:58:08;;;;;;;5.87;2.27;;;5.70;99.90;;;;;;5093023;28;20039;-79
2022/12/06 08:00:35;;;;;;;7.83;2.63;;;5.80;99.90;;;;;;5092063;28;20027;-79
2022/12/06 08:03:01;;;;;;;7.10;2.37;;;5.80;99.90;;;;;;5108585;28;20020;-79
2022/12/06 08:05:26;;;;;;;10.77;3.00;;;5.80;99.90;;;;;;5074948;28;20047;-79
2022/12/06 08:07:52;;;;;;;4.70;2.00;;;5.80;99.90;;;;;;5091564;28;20430;-79
2022/12/06 08:10:17;;;;;;;6.13;2.40;;;5.80;99.90;;;;;;5092560;28;20033;-79
2022/12/06 08:12:43;;;;;;;7.97;2.07;;;5.80;99.90;;;;;;5095657;28;20064;-79
2022/12/06 08:15:11;;;;;;;10.33;2.40;;;5.80;99.90;;;;;;5095481;28;20024;-79
2022/12/06 08:17:39;;;;;;;5.67;2.43;;;5.80;99.90;;;;;;5095455;28;20111;-78
2022/12/06 08:20:06;;;;;;;6.63;2.20;;;5.80;99.90;;;;;;5095592;28;20024;-79
2022/12/06 08:22:31;;;;;;;6.27;1.93;;;5.80;99.90;;;;;;5078609;28;20032;-79
2022/12/06 08:24:57;;;;;;;6.23;1.80;;;5.90;99.90;;;;;;5095405;28;20024;-79
2022/12/06 08:27:23;;;;;;;6.43;2.20;;;5.90;99.90;;;;;;5078555;28;20341;-79
2022/12/06 08:29:48;;;;;;;3.87;1.80;;;5.90;99.90;;;;;;5096644;28;20035;-79
2022/12/06 08:32:14;;;;;;;8.40;2.00;;;5.90;99.90;;;;;;5112462;28;20387;-79
2022/12/06 08:34:41;;;;;;;6.90;2.23;;;5.90;99.90;;;;;;5095259;28;20038;-79
2022/12/06 08:37:07;;;;;;;6.47;2.20;;;5.90;99.90;;;;;;5095107;28;20036;-79
2022/12/06 08:39:32;;;;;;;4.70;1.83;;;5.90;99.90;;;;;;5094978;28;20510;-79
2022/12/06 08:41:58;;;;;;;5.50;1.70;;;5.80;99.90;;;;;;5095011;28;20024;-79
2022/12/06 08:44:26;;;;;;;5.40;1.80;;;5.80;99.90;;;;;;5094880;28;20041;-79
2022/12/06 08:46:53;;;;;;;7.13;1.83;;;5.80;99.90;;;;;;5111756;28;20028;-79
2022/12/06 08:49:18;;;;;;;5.43;2.03;;;5.60;99.90;;;;;;5095056;28;20365;-78
2022/12/06 08:51:45;;;;;;;4.33;1.97;;;5.70;99.90;;;;;;5077866;28;20039;-79
2022/12/06 08:54:13;;;;;;;3.93;2.17;;;5.60;99.90;;;;;;5111863;28;20467;-79
2022/12/06 08:56:39;;;;;;;4.37;1.87;;;5.60;99.90;;;;;;5095950;28;20062;-79
2022/12/06 08:59:05;;;;;;;5.57;2.03;;;5.50;99.90;;;;;;5077848;28;20056;-79
2022/12/06 09:01:32;;;;;;;8.93;2.50;;;5.50;99.90;;;;;;5095920;28;20102;-80
2022/12/06 09:03:59;;;;;;;6.20;2.00;;;5.50;99.90;;;;;;5095885;28;20020;-79
2022/12/06 09:06:26;;;;;;;5.27;2.43;;;5.50;99.90;;;;;;5111629;28;20020;-79
2022/12/06 09:08:51;;;;;;;7.17;2.30;;;5.50;99.90;;;;;;5094505;28;20020;-79
2022/12/06 09:11:18;;;;;;;5.27;2.43;;;5.50;99.90;;;;;;5077582;28;20425;-80
2022/12/06 09:13:44;;;;;;;7.40;2.40;;;5.60;99.90;;;;;;5111305;28;20024;-79
2022/12/06 09:16:18;;;;;;;6.27;2.80;;;5.50;99.90;;;;;;5094127;28;20111;-79
2022/12/06 09:18:45;;;;;;;6.00;2.60;;;5.50;99.90;;;;;;5094369;28;20380;-80
2022/12/06 09:21:13;;;;;;;8.17;2.67;;;5.60;99.90;;;;;;5111210;28;20020;-80
2022/12/06 09:23:39;;;;;;;6.17;2.67;;;5.70;99.90;;;;;;5111211;28;20024;-79
2022/12/06 09:26:06;;;;;;;8.43;2.40;;;5.90;99.90;;;;;;5094228;28;20035;-79
2022/12/06 09:28:34;;;;;;;8.13;2.50;;;6.10;99.90;;;;;;5094261;28;20028;-80
2022/12/06 09:31:01;;;;;;;3.57;1.70;;;6.50;99.90;;;;;;5111136;28;20365;-79
2022/12/06 09:33:27;;;;;;;5.40;1.80;;;7.00;99.90;;;;;;5094597;28;20028;-80
2022/12/06 09:35:53;;;;;;;5.53;1.30;;;7.30;99.90;;;;;;5094038;28;20028;-80
2022/12/06 09:38:24;;;;;;;3.80;1.33;;;7.90;99.90;;;;;;5076891;28;20055;-80
2022/12/06 09:41:15;;;;;;;3.10;1.13;;;8.50;99.90;;;;;;5095070;28;20024;-80
2022/12/06 09:43:41;;;;;;;4.20;1.33;;;9.30;99.90;;;;;;5093619;28;20024;-80
2022/12/06 09:46:33;;;;;;;3.58;1.17;;;10.10;99.90;;;;;;5110606;28;20139;-80
2022/12/06 09:49:10;;;;;;;3.40;0.60;;;10.90;99.90;;;;;;5095009;28;20031;-80
2022/12/06 09:52:11;;;;;;;3.13;0.90;;;11.70;99.90;;;;;;5110470;28;20039;-80
2022/12/06 09:55:17;;;;;;;4.45;0.80;;;12.50;99.90;;;;;;5090700;28;20043;-80
2022/12/06 09:57:59;;;;;;;3.67;1.10;;;13.20;99.90;;;;;;5087402;28;20032;-80
2022/12/06 10:00:39;;;;;;;5.47;1.02;;;13.70;99.90;;;;;;5110808;28;20418;-80
2022/12/06 10:03:26;;;;;;;3.50;0.82;;;14.20;99.90;;;;;;5094717;28;20077;-80
2022/12/06 10:06:01;;;;;;;4.22;1.05;;;14.70;99.30;;;;;;5094622;28;20024;-80
2022/12/06 10:08:56;;;;;;;2.42;1.08;;;15.00;96.60;;;;;;5094583;28;20058;-80
2022/12/06 10:11:53;;;;;;;8.82;1.10;;;15.30;94.80;;;;;;5110331;28;20020;-80
2022/12/06 10:14:26;;;;;;;2.78;0.68;;;15.50;92.70;;;;;;5110046;28;20036;-80
2022/12/06 10:17:19;;;;;;;4.10;0.57;;;15.60;91.60;;;;;;5110275;28;20024;-80
2022/12/06 10:19:51;;;;;;;1.03;0.40;;;15.70;90.40;;;;;;5093232;28;20070;-80
2022/12/06 10:22:42;;;;;;;4.45;0.90;;;15.80;89.10;;;;;;5092998;28;20020;-80
2022/12/06 10:25:38;;;;;;;3.05;0.80;;;15.80;85.80;;;;;;5094405;28;20024;-80
2022/12/06 10:28:32;;;;;;;3.80;0.70;;;15.60;81.90;;;;;;5092793;28;20070;-80
2022/12/06 10:31:07;;;;;;;2.58;0.60;;;15.40;79.80;;;;;;5109733;28;20052;-80
2022/12/06 10:33:44;;;;;;;2.33;0.70;;;15.20;77.90;;;;;;5092770;28;20115;-80
2022/12/06 10:36:14;;;;;;;4.90;0.88;;;14.90;75.80;;;;;;5092784;28;20051;-80
2022/12/06 10:38:51;;;;;;;2.40;0.60;;;14.50;74.40;;;;;;5109864;28;20024;-80
2022/12/06 10:41:42;;;;;;;3.22;0.70;;;14.20;73.90;;;;;;5093991;28;20020;-80
2022/12/06 10:44:25;;;;;;;1.98;0.50;;;13.70;72.80;;;;;;5093974;28;20437;-79
2022/12/06 10:47:05;;;;;;;3.83;0.70;;;13.10;72.00;;;;;;5094169;28;20035;-79
2022/12/06 10:50:01;;;;;;;2.22;0.70;;;12.60;73.20;;;;;;5109363;28;20077;-79
2022/12/06 10:52:40;;;;;;;3.17;0.60;;;12.40;75.80;;;;;;5093865;28;20031;-80
2022/12/06 10:55:09;;;;;;;4.63;0.60;;;12.60;76.70;;;;;;5093928;28;20103;-80
2022/12/06 10:57:43;;;;;;;2.30;0.60;;;12.70;76.80;;;;;;5109327;28;20036;-79
2022/12/06 11:00:24;;;;;;;4.57;0.82;;;12.80;76.60;;;;;;5092613;28;20031;-79
2022/12/06 11:03:05;;;;;;;1.98;0.60;;;12.90;76.50;;;;;;5092551;28;20047;-79
2022/12/06 11:05:42;;;;;;;3.83;1.05;;;13.10;76.10;;;;;;5092440;28;20016;-77
2022/12/06 11:08:15;;;;;;;4.65;1.13;;;13.30;75.20;;;;;;5093659;28;20028;-79
2022/12/06 11:10:43;;;;;;;1.90;0.60;;;13.30;73.90;;;;;;5109068;28;20545;-79
2022/12/06 11:13:46;;;;;;;3.10;0.80;;;13.50;74.20;;;;;;5093517;28;20498;-79
2022/12/06 11:16:23;;;;;;;6.85;0.80;;;13.80;74.60;;;;;;5070700;28;20068;-79
2022/12/06 11:18:49;;;;;;;5.53;0.70;;;14.00;73.30;;;;;;5090569;28;20091;-79
2022/12/06 11:21:58;;;;;;;3.83;1.00;;;14.00;72.80;;;;;;5092329;28;20048;-78
2022/12/06 11:24:38;;;;;;;2.47;0.60;;;13.90;72.00;;;;;;5091257;28;20024;-79
2022/12/06 11:27:15;;;;;;;2.15;0.80;;;13.90;71.90;;;;;;5093582;28;20028;-78
2022/12/06 11:29:43;;;;;;;4.97;0.98;;;13.80;70.20;;;;;;5093386;28;20028;-79
2022/12/06 11:32:12;;;;;;;4.75;1.02;;;13.90;70.20;;;;;;5092273;28;20056;-79
2022/12/06 11:34:42;;;;;;;2.08;0.70;;;13.90;70.70;;;;;;5109344;28;20028;-79
2022/12/06 11:37:18;;;;;;;3.50;0.60;;;13.90;70.80;;;;;;5109103;28;20024;-79
2022/12/06 11:39:44;;;;;;;2.75;0.75;;;14.00;70.60;;;;;;5109485;28;20472;-79
2022/12/06 11:42:13;;;;;;;3.00;0.80;;;14.00;71.00;;;;;;5094586;28;20470;-79
2022/12/06 11:44:52;;;;;;;1.95;0.52;;;14.20;71.10;;;;;;5094465;28;20154;-80
2022/12/06 11:47:23;;;;;;;2.90;0.60;;;14.30;69.50;;;;;;5106290;28;20020;-79
2022/12/06 11:49:52;;;;;;;4.00;0.82;;;14.30;68.60;;;;;;5124584;28;20115;-79
2022/12/06 11:52:29;;;;;;;4.10;0.90;;;14.20;68.20;;;;;;5100319;28;20024;-79
2022/12/06 11:55:02;;;;;;;5.05;0.80;;;14.00;68.10;;;;;;5099520;28;20047;-79
2022/12/06 11:57:37;;;;;;;4.18;0.80;;;13.90;68.30;;;;;;5101195;28;20427;-79
2022/12/06 12:00:29;;;;;;;3.80;0.68;;;13.70;67.80;;;;;;5113886;28;20077;-79
2022/12/06 12:02:55;;;;;;;3.90;0.70;;;13.50;67.20;;;;;;5096046;28;20040;-80
2022/12/06 12:05:24;;;;;;;3.42;0.90;;;13.30;66.70;;;;;;5097361;28;20046;-79
2022/12/06 12:07:58;;;;;;;5.93;1.10;;;13.00;66.80;;;;;;5112822;28;20032;-78
2022/12/06 12:10:30;;;;;;;2.42;0.60;;;12.70;67.00;;;;;;5095666;28;20032;-78
2022/12/06 12:15:50;;;;;;;4.13;0.90;;;12.20;67.80;;;;;;5097063;28;20101;-79
2022/12/06 12:18:24;;;;;;;5.15;0.90;;;11.90;68.50;;;;;;5112476;28;20046;-79
2022/12/06 12:20:49;;;;;;;4.93;0.80;;;11.70;68.90;;;;;;5112310;28;20019;-79
2022/12/06 12:23:30;;;;;;;5.45;0.80;;;11.50;69.20;;;;;;5095555;28;20089;-79
2022/12/06 12:26:17;;;;;;;5.17;1.07;;;11.20;69.30;;;;;;5112416;28;20024;-78
2022/12/06 12:28:45;;;;;;;3.00;0.83;;;11.00;69.80;;;;;;5095402;28;20073;-79
2022/12/06 12:31:21;;;;;;;4.03;0.93;;;10.90;69.90;;;;;;5095270;28;20038;-79
2022/12/06 12:33:48;;;;;;;4.07;0.77;;;10.80;70.30;;;;;;5096526;28;20073;-79
2022/12/06 12:36:25;;;;;;;4.90;1.30;;;10.70;71.00;;;;;;5112296;28;20124;-79
2022/12/06 12:38:55;;;;;;;4.83;1.10;;;10.80;71.80;;;;;;5112054;28;20028;-79
2022/12/06 12:41:23;;;;;;;3.17;1.20;;;11.00;72.30;;;;;;5096436;28;20024;-79
2022/12/06 12:44:05;;;;;;;6.25;1.17;;;10.90;72.80;;;;;;5095083;28;20026;-79
2022/12/06 12:46:35;;;;;;;3.53;1.02;;;11.40;74.60;;;;;;5112090;28;20495;-78
2022/12/06 12:49:31;;;;;;;5.40;1.25;;;12.00;74.80;;;;;;5095150;28;20101;-79
2022/12/06 12:51:58;;;;;;;3.85;1.02;;;12.20;72.50;;;;;;5096168;28;20507;-79
2022/12/06 12:54:33;;;;;;;4.43;0.90;;;12.10;71.10;;;;;;5112181;28;20073;-79
2022/12/06 12:57:01;;;;;;;5.43;1.17;;;11.90;71.20;;;;;;5111158;28;20127;-79
2022/12/06 12:59:34;;;;;;;7.38;1.15;;;11.70;70.90;;;;;;5096047;28;20028;-79
2022/12/06 13:02:11;;;;;;;2.85;0.98;;;11.50;71.10;;;;;;5111811;28;20020;-79
2022/12/06 13:04:45;;;;;;;2.67;0.82;;;11.30;71.30;;;;;;5111793;28;20023;-79
2022/12/06 13:07:24;;;;;;;3.30;1.08;;;11.20;71.40;;;;;;5095970;28;20081;-79
2022/12/06 13:09:55;;;;;;;2.90;0.93;;;11.00;71.90;;;;;;5111577;28;20020;-79
2022/12/06 13:12:40;;;;;;;4.22;1.27;;;10.90;72.20;;;;;;5095692;28;20016;-79
2022/12/06 13:15:19;;;;;;;6.70;1.63;;;10.80;72.60;;;;;;5095623;28;20052;-79
2022/12/06 13:17:50;;;;;;;4.33;1.60;;;10.80;72.70;;;;;;5111293;28;20070;-78
2022/12/06 13:20:19;;;;;;;6.63;1.60;;;10.70;72.80;;;;;;5095710;28;20031;-83
2022/12/06 13:22:47;;;;;;;6.07;1.60;;;10.60;73.10;;;;;;5111427;28;20052;-82
2022/12/06 13:25:13;;;;;;;6.53;1.97;;;10.50;73.30;;;;;;5111480;28;20020;-83
2022/12/06 13:27:43;;;;;;;5.77;1.90;;;10.40;73.70;;;;;;5094357;28;20028;-82
2022/12/06 13:30:17;;;;;;;3.47;1.27;;;10.20;74.10;;;;;;5111198;28;20513;-83
2022/12/06 13:32:59;;;;;;;6.67;2.03;;;10.10;74.70;;;;;;5110938;28;20042;-82
2022/12/06 13:35:32;;;;;;;8.53;2.03;;;9.90;75.00;;;;;;5093857;28;20020;-82